createdAt,value
2017-01-29T00:00:12.330Z,958.39
2017-01-29T00:01:12.443Z,958.36
2017-01-29T00:02:13.072Z,958.40
2017-01-29T00:03:12.609Z,958.36
2017-01-29T00:04:13.405Z,958.37
2017-01-29T00:05:12.543Z,958.36
2017-01-29T00:06:13.056Z,958.34
2017-01-29T00:07:13.051Z,958.35
2017-01-29T00:08:12.045Z,958.34
2017-01-29T00:09:11.106Z,958.32
2017-01-29T00:10:10.869Z,958.36
2017-01-29T00:11:12.895Z,958.35
2017-01-29T00:12:14.325Z,958.34
2017-01-29T00:13:12.298Z,958.33
2017-01-29T00:14:15.943Z,958.33
2017-01-29T00:15:12.047Z,958.29
2017-01-29T00:16:13.977Z,958.32
2017-01-29T00:17:12.328Z,958.34
2017-01-29T00:18:12.406Z,958.32
2017-01-29T00:19:12.597Z,958.35
2017-01-29T00:20:10.861Z,958.33
2017-01-29T00:21:13.668Z,958.35
2017-01-29T00:22:13.258Z,958.31
2017-01-29T00:23:12.934Z,958.29
2017-01-29T00:24:14.695Z,958.34
2017-01-29T00:25:13.603Z,958.35
2017-01-29T00:26:12.897Z,958.39
2017-01-29T00:27:13.528Z,958.38
2017-01-29T00:28:12.614Z,958.35
2017-01-29T00:29:13.963Z,958.36
2017-01-29T00:30:12.209Z,958.33
2017-01-29T00:31:12.886Z,958.33
2017-01-29T00:32:12.445Z,958.34
2017-01-29T00:33:12.439Z,958.38
2017-01-29T00:34:12.960Z,958.33
2017-01-29T00:35:12.685Z,958.32
2017-01-29T00:36:13.447Z,958.36
2017-01-29T00:37:11.397Z,958.33
2017-01-29T00:38:13.016Z,958.39
2017-01-29T00:39:12.135Z,958.40
2017-01-29T00:40:12.685Z,958.36
2017-01-29T00:41:13.415Z,958.39
2017-01-29T00:42:13.574Z,958.38
2017-01-29T00:43:12.406Z,958.40
2017-01-29T00:44:12.323Z,958.36
2017-01-29T00:45:12.675Z,958.34
2017-01-29T00:46:12.796Z,958.35
2017-01-29T00:47:11.887Z,958.36
2017-01-29T00:48:12.790Z,958.36
2017-01-29T00:49:13.406Z,958.34
2017-01-29T00:50:12.926Z,958.35
2017-01-29T00:51:12.659Z,958.37
2017-01-29T00:52:11.014Z,958.36
2017-01-29T00:53:12.543Z,958.39
2017-01-29T00:54:12.623Z,958.35
2017-01-29T00:55:13.121Z,958.41
2017-01-29T00:56:12.849Z,958.40
2017-01-29T00:57:11.885Z,958.40
2017-01-29T00:58:12.613Z,958.43
2017-01-29T00:59:13.765Z,958.44
2017-01-29T01:00:14.011Z,958.41
2017-01-29T01:01:12.183Z,958.41
2017-01-29T01:02:14.290Z,958.39
2017-01-29T01:03:12.370Z,958.40
2017-01-29T01:04:13.558Z,958.41
2017-01-29T01:05:12.705Z,958.44
2017-01-29T01:06:12.799Z,958.47
2017-01-29T01:07:12.457Z,958.47
2017-01-29T01:08:13.144Z,958.44
2017-01-29T01:09:13.403Z,958.44
2017-01-29T01:10:12.512Z,958.45
2017-01-29T01:11:12.939Z,958.44
2017-01-29T01:12:12.027Z,958.45
2017-01-29T01:13:12.356Z,958.45
2017-01-29T01:14:13.084Z,958.43
2017-01-29T01:15:12.814Z,958.42
2017-01-29T01:16:14.676Z,958.45
2017-01-29T01:17:13.288Z,958.46
2017-01-29T01:18:13.043Z,958.46
2017-01-29T01:19:12.469Z,958.47
2017-01-29T01:20:12.561Z,958.49
2017-01-29T01:21:12.683Z,958.49
2017-01-29T01:22:12.722Z,958.47
2017-01-29T01:23:13.570Z,958.49
2017-01-29T01:24:11.724Z,958.47
2017-01-29T01:25:11.908Z,958.45
2017-01-29T01:26:12.725Z,958.50
2017-01-29T01:27:10.893Z,958.54
2017-01-29T01:28:12.858Z,958.55
2017-01-29T01:29:12.696Z,958.54
2017-01-29T01:30:13.495Z,958.55
2017-01-29T01:31:12.964Z,958.60
2017-01-29T01:32:12.755Z,958.62
2017-01-29T01:33:13.261Z,958.61
2017-01-29T01:34:12.479Z,958.60
2017-01-29T01:35:11.768Z,958.60
2017-01-29T01:36:13.205Z,958.61
2017-01-29T01:37:12.983Z,958.61
2017-01-29T01:38:12.043Z,958.57
2017-01-29T01:39:12.091Z,958.56
2017-01-29T01:40:12.827Z,958.53
2017-01-29T01:41:12.564Z,958.51
2017-01-29T01:42:13.361Z,958.55
2017-01-29T01:43:14.522Z,958.53
2017-01-29T01:44:13.221Z,958.49
2017-01-29T01:45:12.348Z,958.48
2017-01-29T01:46:11.387Z,958.50
2017-01-29T01:47:12.813Z,958.49
2017-01-29T01:48:13.572Z,958.49
2017-01-29T01:49:13.195Z,958.47
2017-01-29T01:50:12.945Z,958.51
2017-01-29T01:51:13.653Z,958.47
2017-01-29T01:52:13.592Z,958.49
2017-01-29T01:53:14.454Z,958.49
2017-01-29T01:54:14.059Z,958.54
2017-01-29T01:55:13.117Z,958.52
2017-01-29T01:56:13.033Z,958.49
2017-01-29T01:57:13.764Z,958.52
2017-01-29T01:58:11.798Z,958.52
2017-01-29T01:59:13.302Z,958.48
2017-01-29T02:00:12.279Z,958.53
2017-01-29T02:01:10.452Z,958.51
2017-01-29T02:02:13.273Z,958.54
2017-01-29T02:03:12.507Z,958.56
2017-01-29T02:04:13.284Z,958.55
2017-01-29T02:05:10.144Z,958.58
2017-01-29T02:06:12.539Z,958.56
2017-01-29T02:07:13.557Z,958.62
2017-01-29T02:08:13.452Z,958.61
2017-01-29T02:09:16.757Z,958.59
2017-01-29T02:10:11.821Z,958.66
2017-01-29T02:11:11.874Z,958.65
2017-01-29T02:12:12.820Z,958.68
2017-01-29T02:13:12.698Z,958.61
2017-01-29T02:14:15.646Z,958.65
2017-01-29T02:15:13.331Z,958.65
2017-01-29T02:16:14.110Z,958.64
2017-01-29T02:17:12.931Z,958.70
2017-01-29T02:18:12.829Z,958.64
2017-01-29T02:19:12.364Z,958.67
2017-01-29T02:20:12.537Z,958.68
2017-01-29T02:21:13.073Z,958.69
2017-01-29T02:22:10.877Z,958.68
2017-01-29T02:23:12.969Z,958.74
2017-01-29T02:24:12.750Z,958.73
2017-01-29T02:25:13.635Z,958.70
2017-01-29T02:26:10.975Z,958.70
2017-01-29T02:27:12.485Z,958.74
2017-01-29T02:28:13.999Z,958.74
2017-01-29T02:29:12.726Z,958.73
2017-01-29T02:30:13.338Z,958.79
2017-01-29T02:31:13.615Z,958.76
2017-01-29T02:32:10.846Z,958.73
2017-01-29T02:33:10.800Z,958.78
2017-01-29T02:34:13.129Z,958.79
2017-01-29T02:35:12.868Z,958.76
2017-01-29T02:36:10.602Z,958.79
2017-01-29T02:37:12.377Z,958.78
2017-01-29T02:38:13.263Z,958.78
2017-01-29T02:39:12.334Z,958.80
2017-01-29T02:40:13.305Z,958.80
2017-01-29T02:41:12.502Z,958.80
2017-01-29T02:42:12.441Z,958.80
2017-01-29T02:43:12.904Z,958.85
2017-01-29T02:44:12.934Z,958.84
2017-01-29T02:45:12.074Z,958.86
2017-01-29T02:46:12.338Z,958.87
2017-01-29T02:47:13.095Z,958.85
2017-01-29T02:48:14.791Z,958.86
2017-01-29T02:49:12.731Z,958.87
2017-01-29T02:50:13.236Z,958.82
2017-01-29T02:51:13.437Z,958.84
2017-01-29T02:52:13.846Z,958.84
2017-01-29T02:53:13.653Z,958.87
2017-01-29T02:54:13.236Z,958.91
2017-01-29T02:55:13.020Z,958.87
2017-01-29T02:56:12.636Z,958.88
2017-01-29T02:57:13.228Z,958.87
2017-01-29T02:58:12.786Z,958.87
2017-01-29T02:59:12.334Z,958.86
2017-01-29T03:00:12.912Z,958.89
2017-01-29T03:01:12.546Z,958.91
2017-01-29T03:02:13.168Z,958.89
2017-01-29T03:03:12.947Z,958.87
2017-01-29T03:04:12.590Z,958.88
2017-01-29T03:05:12.548Z,958.87
2017-01-29T03:06:13.190Z,958.88
2017-01-29T03:07:13.281Z,958.87
2017-01-29T03:08:12.482Z,958.88
2017-01-29T03:09:12.604Z,958.89
2017-01-29T03:10:13.142Z,958.89
2017-01-29T03:11:12.223Z,958.87
2017-01-29T03:12:12.462Z,958.88
2017-01-29T03:13:13.419Z,958.87
2017-01-29T03:14:13.497Z,958.87
2017-01-29T03:15:12.442Z,958.87
2017-01-29T03:16:12.315Z,958.87
2017-01-29T03:17:13.291Z,958.85
2017-01-29T03:18:10.590Z,958.83
2017-01-29T03:19:12.436Z,958.81
2017-01-29T03:20:12.583Z,958.87
2017-01-29T03:21:13.322Z,958.86
2017-01-29T03:22:11.553Z,958.90
2017-01-29T03:23:13.594Z,958.88
2017-01-29T03:24:13.265Z,958.89
2017-01-29T03:25:12.787Z,958.88
2017-01-29T03:26:11.495Z,958.89
2017-01-29T03:27:13.721Z,958.87
2017-01-29T03:28:12.744Z,958.88
2017-01-29T03:29:12.868Z,958.91
2017-01-29T03:30:12.711Z,958.89
2017-01-29T03:31:14.632Z,958.93
2017-01-29T03:32:13.397Z,958.87
2017-01-29T03:33:12.446Z,958.91
2017-01-29T03:34:13.103Z,958.97
2017-01-29T03:35:13.892Z,958.97
2017-01-29T03:36:12.784Z,959.00
2017-01-29T03:37:11.982Z,959.02
2017-01-29T03:38:09.596Z,959.01
2017-01-29T03:39:12.630Z,959.05
2017-01-29T03:40:13.773Z,959.05
2017-01-29T03:41:11.768Z,959.05
2017-01-29T03:42:11.046Z,959.06
2017-01-29T03:43:12.451Z,959.07
2017-01-29T03:44:12.598Z,959.08
2017-01-29T03:45:11.713Z,959.10
2017-01-29T03:46:11.725Z,959.09
2017-01-29T03:47:13.463Z,959.09
2017-01-29T03:48:12.490Z,959.13
2017-01-29T03:49:12.496Z,959.13
2017-01-29T03:50:12.507Z,959.16
2017-01-29T03:51:13.848Z,959.15
2017-01-29T03:52:12.517Z,959.18
2017-01-29T03:53:12.449Z,959.14
2017-01-29T03:54:12.538Z,959.10
2017-01-29T03:55:13.160Z,959.16
2017-01-29T03:56:13.304Z,959.15
2017-01-29T03:57:13.143Z,959.11
2017-01-29T03:58:15.566Z,959.10
2017-01-29T03:59:13.199Z,959.15
2017-01-29T04:00:12.798Z,959.12
2017-01-29T04:01:12.876Z,959.12
2017-01-29T04:02:13.717Z,959.10
2017-01-29T04:03:12.802Z,959.12
2017-01-29T04:04:12.645Z,959.13
2017-01-29T04:05:13.280Z,959.13
2017-01-29T04:06:13.055Z,959.20
2017-01-29T04:07:13.344Z,959.17
2017-01-29T04:08:12.826Z,959.18
2017-01-29T04:09:12.332Z,959.19
2017-01-29T04:10:13.908Z,959.24
2017-01-29T04:11:12.779Z,959.26
2017-01-29T04:12:12.046Z,959.22
2017-01-29T04:13:13.932Z,959.26
2017-01-29T04:14:12.555Z,959.29
2017-01-29T04:15:13.137Z,959.27
2017-01-29T04:16:13.474Z,959.30
2017-01-29T04:17:13.515Z,959.33
2017-01-29T04:18:13.149Z,959.32
2017-01-29T04:19:13.628Z,959.32
2017-01-29T04:20:12.639Z,959.28
2017-01-29T04:21:12.586Z,959.32
2017-01-29T04:22:15.388Z,959.32
2017-01-29T04:23:12.572Z,959.30
2017-01-29T04:24:13.307Z,959.32
2017-01-29T04:25:13.153Z,959.28
2017-01-29T04:26:12.718Z,959.30
2017-01-29T04:27:14.037Z,959.30
2017-01-29T04:28:12.812Z,959.33
2017-01-29T04:29:11.864Z,959.32
2017-01-29T04:30:12.151Z,959.37
2017-01-29T04:31:12.219Z,959.36
2017-01-29T04:32:13.871Z,959.34
2017-01-29T04:33:12.038Z,959.38
2017-01-29T04:34:12.179Z,959.38
2017-01-29T04:35:12.868Z,959.39
2017-01-29T04:36:11.926Z,959.39
2017-01-29T04:37:12.547Z,959.38
2017-01-29T04:38:12.723Z,959.39
2017-01-29T04:39:14.545Z,959.40
2017-01-29T04:40:13.349Z,959.41
2017-01-29T04:41:10.463Z,959.34
2017-01-29T04:42:13.200Z,959.32
2017-01-29T04:43:12.815Z,959.36
2017-01-29T04:44:11.945Z,959.38
2017-01-29T04:45:12.747Z,959.39
2017-01-29T04:46:12.917Z,959.39
2017-01-29T04:47:13.601Z,959.39
2017-01-29T04:48:12.721Z,959.39
2017-01-29T04:49:11.899Z,959.45
2017-01-29T04:50:12.154Z,959.40
2017-01-29T04:51:13.469Z,959.43
2017-01-29T04:52:12.437Z,959.43
2017-01-29T04:53:12.422Z,959.40
2017-01-29T04:54:12.404Z,959.44
2017-01-29T04:55:13.805Z,959.40
2017-01-29T04:56:12.034Z,959.41
2017-01-29T04:57:13.509Z,959.41
2017-01-29T04:58:12.628Z,959.45
2017-01-29T04:59:14.544Z,959.43
2017-01-29T05:00:13.180Z,959.49
2017-01-29T05:01:13.656Z,959.45
2017-01-29T05:02:12.635Z,959.39
2017-01-29T05:03:13.796Z,959.42
2017-01-29T05:04:12.418Z,959.46
2017-01-29T05:05:13.689Z,959.44
2017-01-29T05:06:12.821Z,959.46
2017-01-29T05:07:13.485Z,959.46
2017-01-29T05:08:14.270Z,959.43
2017-01-29T05:09:13.122Z,959.45
2017-01-29T05:10:13.393Z,959.49
2017-01-29T05:11:10.693Z,959.45
2017-01-29T05:12:12.782Z,959.47
2017-01-29T05:13:12.754Z,959.49
2017-01-29T05:14:12.763Z,959.51
2017-01-29T05:15:12.505Z,959.50
2017-01-29T05:16:13.133Z,959.52
2017-01-29T05:17:13.049Z,959.56
2017-01-29T05:18:12.220Z,959.55
2017-01-29T05:19:11.515Z,959.58
2017-01-29T05:20:13.251Z,959.59
2017-01-29T05:21:12.838Z,959.54
2017-01-29T05:22:12.577Z,959.55
2017-01-29T05:23:13.477Z,959.60
2017-01-29T05:24:11.314Z,959.57
2017-01-29T05:25:15.628Z,959.59
2017-01-29T05:26:16.416Z,959.59
2017-01-29T05:27:16.655Z,959.61
2017-01-29T05:28:12.601Z,959.64
2017-01-29T05:29:13.261Z,959.63
2017-01-29T05:30:13.126Z,959.61
2017-01-29T05:31:12.221Z,959.61
2017-01-29T05:32:12.252Z,959.58
2017-01-29T05:33:12.307Z,959.60
2017-01-29T05:34:12.400Z,959.64
2017-01-29T05:35:12.610Z,959.63
2017-01-29T05:36:13.138Z,959.62
2017-01-29T05:37:10.485Z,959.69
2017-01-29T05:38:11.710Z,959.70
2017-01-29T05:39:13.294Z,959.70
2017-01-29T05:40:12.399Z,959.71
2017-01-29T05:41:10.413Z,959.76
2017-01-29T05:42:12.549Z,959.77
2017-01-29T05:43:13.299Z,959.75
2017-01-29T05:44:10.994Z,959.81
2017-01-29T05:45:12.886Z,959.81
2017-01-29T05:46:11.982Z,959.81
2017-01-29T05:47:10.862Z,959.77
2017-01-29T05:48:15.016Z,959.78
2017-01-29T05:49:12.217Z,959.82
2017-01-29T05:50:12.418Z,959.79
2017-01-29T05:51:12.594Z,959.79
2017-01-29T05:52:12.658Z,959.79
2017-01-29T05:53:12.783Z,959.85
2017-01-29T05:54:12.349Z,959.84
2017-01-29T05:55:13.029Z,959.82
2017-01-29T05:56:12.487Z,959.85
2017-01-29T05:57:13.040Z,959.84
2017-01-29T05:58:13.560Z,959.85
2017-01-29T05:59:12.709Z,959.85
2017-01-29T06:00:11.827Z,959.84
2017-01-29T06:01:12.401Z,959.87
2017-01-29T06:02:12.397Z,959.85
2017-01-29T06:03:13.951Z,959.88
2017-01-29T06:04:10.790Z,959.86
2017-01-29T06:05:12.218Z,959.88
2017-01-29T06:06:12.657Z,959.91
2017-01-29T06:07:13.422Z,959.86
2017-01-29T06:08:12.935Z,959.86
2017-01-29T06:09:12.779Z,959.89
2017-01-29T06:10:13.023Z,959.86
2017-01-29T06:11:13.818Z,959.83
2017-01-29T06:12:16.510Z,959.88
2017-01-29T06:13:13.839Z,959.82
2017-01-29T06:14:13.480Z,959.83
2017-01-29T06:15:11.713Z,959.86
2017-01-29T06:16:13.033Z,959.88
2017-01-29T06:17:12.665Z,959.85
2017-01-29T06:18:12.249Z,959.88
2017-01-29T06:19:12.355Z,959.90
2017-01-29T06:20:12.377Z,959.88
2017-01-29T06:21:12.539Z,959.91
2017-01-29T06:22:12.539Z,959.91
2017-01-29T06:23:12.469Z,959.91
2017-01-29T06:24:12.534Z,959.96
2017-01-29T06:25:12.738Z,959.90
2017-01-29T06:26:14.356Z,959.93
2017-01-29T06:27:12.943Z,959.89
2017-01-29T06:28:11.863Z,959.90
2017-01-29T06:29:12.387Z,959.95
2017-01-29T06:30:13.149Z,959.91
2017-01-29T06:31:12.256Z,959.96
2017-01-29T06:32:14.057Z,959.94
2017-01-29T06:33:12.897Z,959.94
2017-01-29T06:34:11.908Z,959.92
2017-01-29T06:35:12.652Z,959.96
2017-01-29T06:36:12.660Z,959.98
2017-01-29T06:37:14.336Z,959.91
2017-01-29T06:38:12.566Z,959.97
2017-01-29T06:39:10.172Z,959.97
2017-01-29T06:40:12.342Z,959.97
2017-01-29T06:41:12.451Z,959.97
2017-01-29T06:42:13.127Z,959.98
2017-01-29T06:43:12.269Z,959.98
2017-01-29T06:44:12.667Z,960.02
2017-01-29T06:45:12.724Z,960.02
2017-01-29T06:46:11.891Z,960.02
2017-01-29T06:47:12.940Z,960.00
2017-01-29T06:48:12.888Z,959.99
2017-01-29T06:49:13.020Z,960.01
2017-01-29T06:50:12.544Z,960.02
2017-01-29T06:51:12.514Z,960.08
2017-01-29T06:52:13.271Z,960.04
2017-01-29T06:53:12.917Z,960.07
2017-01-29T06:54:12.380Z,960.05
2017-01-29T06:55:12.924Z,960.06
2017-01-29T06:56:12.110Z,960.05
2017-01-29T06:57:12.203Z,960.03
2017-01-29T06:58:13.633Z,960.00
2017-01-29T06:59:13.266Z,960.02
2017-01-29T07:00:13.966Z,960.06
2017-01-29T07:01:12.640Z,960.04
2017-01-29T07:02:12.637Z,960.05
2017-01-29T07:03:12.722Z,960.01
2017-01-29T07:04:12.807Z,960.05
2017-01-29T07:05:12.350Z,960.04
2017-01-29T07:06:11.396Z,960.05
2017-01-29T07:07:12.646Z,960.04
2017-01-29T07:08:13.133Z,960.02
2017-01-29T07:09:13.862Z,960.05
2017-01-29T07:10:13.522Z,960.09
2017-01-29T07:11:12.466Z,960.11
2017-01-29T07:12:11.260Z,960.08
2017-01-29T07:13:12.420Z,960.11
2017-01-29T07:14:13.956Z,960.11
2017-01-29T07:15:12.733Z,960.05
2017-01-29T07:16:14.329Z,960.04
2017-01-29T07:17:12.985Z,960.10
2017-01-29T07:18:13.742Z,960.08
2017-01-29T07:19:12.871Z,960.09
2017-01-29T07:20:12.073Z,960.08
2017-01-29T07:21:10.325Z,960.08
2017-01-29T07:22:13.125Z,960.08
2017-01-29T07:23:11.269Z,960.09
2017-01-29T07:24:12.393Z,960.06
2017-01-29T07:25:12.508Z,960.08
2017-01-29T07:26:13.137Z,960.08
2017-01-29T07:27:12.767Z,960.09
2017-01-29T07:28:12.034Z,960.08
2017-01-29T07:29:12.110Z,960.08
2017-01-29T07:30:12.841Z,960.11
2017-01-29T07:31:11.864Z,960.14
2017-01-29T07:32:11.007Z,960.15
2017-01-29T07:33:11.998Z,960.13
2017-01-29T07:34:12.489Z,960.14
2017-01-29T07:35:12.707Z,960.15
2017-01-29T07:36:13.002Z,960.14
2017-01-29T07:37:11.168Z,960.14
2017-01-29T07:38:12.988Z,960.11
2017-01-29T07:39:11.971Z,960.14
2017-01-29T07:40:11.270Z,960.17
2017-01-29T07:41:12.237Z,960.15
2017-01-29T07:42:12.960Z,960.17
2017-01-29T07:43:12.350Z,960.13
2017-01-29T07:44:11.365Z,960.17
2017-01-29T07:45:11.077Z,960.16
2017-01-29T07:46:13.813Z,960.21
2017-01-29T07:47:11.988Z,960.22
2017-01-29T07:48:12.157Z,960.27
2017-01-29T07:49:12.765Z,960.26
2017-01-29T07:50:11.909Z,960.28
2017-01-29T07:51:12.436Z,960.28
2017-01-29T07:52:12.489Z,960.23
2017-01-29T07:53:14.276Z,960.24
2017-01-29T07:54:12.270Z,960.27
2017-01-29T07:55:12.870Z,960.28
2017-01-29T07:56:12.612Z,960.25
2017-01-29T07:57:12.761Z,960.22
2017-01-29T07:58:11.918Z,960.20
2017-01-29T07:59:12.948Z,960.18
2017-01-29T08:00:11.986Z,960.20
2017-01-29T08:01:12.575Z,960.20
2017-01-29T08:02:13.146Z,960.22
2017-01-29T08:03:12.137Z,960.22
2017-01-29T08:04:12.864Z,960.28
2017-01-29T08:05:12.437Z,960.18
2017-01-29T08:06:12.624Z,960.21
2017-01-29T08:07:12.710Z,960.22
2017-01-29T08:08:12.883Z,960.22
2017-01-29T08:09:13.694Z,960.23
2017-01-29T08:10:14.638Z,960.22
2017-01-29T08:11:12.702Z,960.23
2017-01-29T08:12:12.858Z,960.17
2017-01-29T08:13:12.564Z,960.22
2017-01-29T08:14:12.687Z,960.22
2017-01-29T08:15:14.458Z,960.27
2017-01-29T08:16:12.543Z,960.24
2017-01-29T08:17:13.959Z,960.25
2017-01-29T08:18:12.577Z,960.28
2017-01-29T08:19:12.624Z,960.24
2017-01-29T08:20:12.696Z,960.26
2017-01-29T08:21:13.575Z,960.24
2017-01-29T08:22:10.850Z,960.22
2017-01-29T08:23:13.457Z,960.24
2017-01-29T08:24:13.144Z,960.25
2017-01-29T08:25:12.878Z,960.20
2017-01-29T08:26:12.689Z,960.21
2017-01-29T08:27:13.277Z,960.20
2017-01-29T08:28:12.344Z,960.23
2017-01-29T08:29:12.943Z,960.17
2017-01-29T08:30:12.707Z,960.22
2017-01-29T08:31:12.889Z,960.25
2017-01-29T08:32:11.953Z,960.20
2017-01-29T08:33:13.689Z,960.21
2017-01-29T08:34:11.439Z,960.29
2017-01-29T08:35:14.806Z,960.25
2017-01-29T08:36:12.507Z,960.27
2017-01-29T08:37:13.398Z,960.26
2017-01-29T08:38:12.429Z,960.28
2017-01-29T08:39:11.405Z,960.30
2017-01-29T08:40:12.969Z,960.29
2017-01-29T08:41:13.828Z,960.30
2017-01-29T08:42:12.555Z,960.30
2017-01-29T08:43:13.621Z,960.29
2017-01-29T08:44:11.743Z,960.27
2017-01-29T08:45:12.804Z,960.31
2017-01-29T08:46:13.415Z,960.34
2017-01-29T08:47:13.069Z,960.36
2017-01-29T08:48:12.016Z,960.34
2017-01-29T08:49:12.704Z,960.42
2017-01-29T08:50:13.022Z,960.42
2017-01-29T08:51:12.785Z,960.49
2017-01-29T08:52:12.464Z,960.58
2017-01-29T08:53:10.334Z,960.50
2017-01-29T08:54:13.176Z,960.50
2017-01-29T08:55:12.174Z,960.41
2017-01-29T08:56:12.334Z,960.38
2017-01-29T08:57:13.077Z,960.38
2017-01-29T08:58:12.304Z,960.41
2017-01-29T08:59:12.301Z,960.40
2017-01-29T09:00:12.337Z,960.39
2017-01-29T09:01:12.412Z,960.35
2017-01-29T09:02:13.033Z,960.35
2017-01-29T09:03:13.173Z,960.30
2017-01-29T09:04:12.205Z,960.32
2017-01-29T09:05:13.081Z,960.25
2017-01-29T09:06:12.215Z,960.29
2017-01-29T09:07:12.534Z,960.30
2017-01-29T09:08:13.356Z,960.31
2017-01-29T09:09:12.551Z,960.29
2017-01-29T09:10:12.534Z,960.31
2017-01-29T09:11:13.067Z,960.30
2017-01-29T09:12:12.613Z,960.32
2017-01-29T09:13:12.786Z,960.30
2017-01-29T09:14:11.867Z,960.33
2017-01-29T09:15:12.596Z,960.32
2017-01-29T09:16:12.685Z,960.33
2017-01-29T09:17:13.334Z,960.31
2017-01-29T09:18:13.324Z,960.31
2017-01-29T09:19:12.858Z,960.33
2017-01-29T09:20:12.274Z,960.35
2017-01-29T09:21:12.369Z,960.31
2017-01-29T09:22:12.372Z,960.32
2017-01-29T09:23:13.864Z,960.34
2017-01-29T09:24:12.947Z,960.32
2017-01-29T09:25:12.178Z,960.34
2017-01-29T09:26:13.724Z,960.32
2017-01-29T09:27:11.794Z,960.31
2017-01-29T09:28:11.120Z,960.31
2017-01-29T09:29:11.396Z,960.32
2017-01-29T09:30:14.369Z,960.38
2017-01-29T09:31:12.566Z,960.33
2017-01-29T09:32:12.572Z,960.33
2017-01-29T09:33:12.876Z,960.31
2017-01-29T09:34:12.774Z,960.36
2017-01-29T09:35:12.049Z,960.36
2017-01-29T09:36:12.427Z,960.33
2017-01-29T09:37:13.215Z,960.33
2017-01-29T09:38:12.914Z,960.31
2017-01-29T09:39:13.609Z,960.33
2017-01-29T09:40:13.801Z,960.37
2017-01-29T09:41:12.049Z,960.34
2017-01-29T09:42:13.922Z,960.36
2017-01-29T09:43:11.936Z,960.37
2017-01-29T09:44:12.884Z,960.36
2017-01-29T09:45:11.885Z,960.39
2017-01-29T09:46:12.096Z,960.39
2017-01-29T09:47:12.203Z,960.33
2017-01-29T09:48:13.294Z,960.35
2017-01-29T09:49:13.162Z,960.37
2017-01-29T09:50:12.856Z,960.36
2017-01-29T09:51:13.001Z,960.43
2017-01-29T09:52:12.057Z,960.43
2017-01-29T09:53:12.042Z,960.45
2017-01-29T09:54:13.803Z,960.34
2017-01-29T09:55:12.250Z,960.38
2017-01-29T09:56:12.985Z,960.40
2017-01-29T09:57:13.722Z,960.33
2017-01-29T09:58:12.875Z,960.39
2017-01-29T09:59:10.787Z,960.31
2017-01-29T10:00:12.108Z,960.29
2017-01-29T10:01:12.141Z,960.32
2017-01-29T10:02:13.048Z,960.27
2017-01-29T10:03:12.790Z,960.30
2017-01-29T10:04:12.354Z,960.34
2017-01-29T10:05:14.253Z,960.34
2017-01-29T10:06:12.761Z,960.32
2017-01-29T10:07:11.949Z,960.30
2017-01-29T10:08:12.610Z,960.32
2017-01-29T10:09:12.819Z,960.27
2017-01-29T10:10:12.761Z,960.34
2017-01-29T10:11:12.536Z,960.30
2017-01-29T10:12:13.607Z,960.28
2017-01-29T10:13:12.559Z,960.26
2017-01-29T10:14:11.594Z,960.22
2017-01-29T10:15:14.586Z,960.25
2017-01-29T10:16:14.204Z,960.24
2017-01-29T10:17:13.816Z,960.24
2017-01-29T10:18:13.027Z,960.23
2017-01-29T10:19:14.255Z,960.24
2017-01-29T10:20:12.388Z,960.19
2017-01-29T10:21:12.484Z,960.18
2017-01-29T10:22:12.591Z,960.24
2017-01-29T10:23:13.870Z,960.20
2017-01-29T10:24:10.937Z,960.14
2017-01-29T10:25:13.728Z,960.20
2017-01-29T10:26:12.693Z,960.11
2017-01-29T10:27:12.726Z,960.14
2017-01-29T10:28:12.763Z,960.12
2017-01-29T10:29:12.385Z,960.11
2017-01-29T10:30:14.317Z,960.12
2017-01-29T10:31:13.009Z,960.10
2017-01-29T10:32:12.095Z,960.07
2017-01-29T10:33:12.165Z,960.08
2017-01-29T10:34:12.802Z,960.08
2017-01-29T10:35:11.852Z,960.07
2017-01-29T10:36:11.879Z,960.09
2017-01-29T10:37:11.955Z,960.04
2017-01-29T10:38:12.283Z,960.02
2017-01-29T10:39:18.066Z,960.00
2017-01-29T10:40:12.874Z,960.08
2017-01-29T10:41:11.921Z,960.03
2017-01-29T10:42:12.537Z,960.03
2017-01-29T10:43:12.567Z,960.00
2017-01-29T10:44:13.265Z,960.00
2017-01-29T10:45:13.070Z,959.96
2017-01-29T10:46:12.106Z,959.97
2017-01-29T10:47:13.108Z,960.00
2017-01-29T10:48:12.205Z,960.00
2017-01-29T10:49:14.947Z,959.95
2017-01-29T10:50:12.193Z,959.95
2017-01-29T10:51:13.137Z,959.94
2017-01-29T10:52:12.687Z,959.90
2017-01-29T10:53:14.434Z,959.92
2017-01-29T10:54:13.077Z,959.93
2017-01-29T10:55:12.202Z,959.88
2017-01-29T10:56:12.327Z,959.87
2017-01-29T10:57:13.121Z,959.88
2017-01-29T10:58:12.888Z,959.82
2017-01-29T10:59:12.041Z,959.82
2017-01-29T11:00:10.203Z,959.83
2017-01-29T11:01:13.973Z,959.81
2017-01-29T11:02:13.830Z,959.80
2017-01-29T11:03:12.414Z,959.83
2017-01-29T11:04:16.054Z,959.83
2017-01-29T11:05:12.332Z,959.82
2017-01-29T11:06:14.501Z,959.80
2017-01-29T11:07:14.658Z,959.75
2017-01-29T11:08:14.443Z,959.73
2017-01-29T11:09:12.422Z,959.77
2017-01-29T11:10:13.064Z,959.70
2017-01-29T11:11:10.363Z,959.72
2017-01-29T11:12:11.406Z,959.71
2017-01-29T11:13:12.493Z,959.69
2017-01-29T11:14:14.178Z,959.67
2017-01-29T11:15:12.245Z,959.60
2017-01-29T11:16:12.389Z,959.63
2017-01-29T11:17:12.572Z,959.63
2017-01-29T11:18:12.647Z,959.61
2017-01-29T11:19:13.451Z,959.61
2017-01-29T11:20:11.159Z,959.61
2017-01-29T11:21:12.429Z,959.61
2017-01-29T11:22:12.536Z,959.58
2017-01-29T11:23:12.534Z,959.56
2017-01-29T11:24:13.189Z,959.54
2017-01-29T11:25:12.320Z,959.55
2017-01-29T11:26:12.992Z,959.53
2017-01-29T11:27:10.660Z,959.54
2017-01-29T11:28:13.247Z,959.52
2017-01-29T11:29:12.373Z,959.54
2017-01-29T11:30:13.244Z,959.50
2017-01-29T11:31:13.000Z,959.55
2017-01-29T11:32:12.929Z,959.51
2017-01-29T11:33:12.070Z,959.50
2017-01-29T11:34:12.896Z,959.48
2017-01-29T11:35:12.300Z,959.50
2017-01-29T11:36:12.389Z,959.49
2017-01-29T11:37:13.213Z,959.49
2017-01-29T11:38:09.511Z,959.45
2017-01-29T11:39:12.481Z,959.43
2017-01-29T11:40:13.995Z,959.42
2017-01-29T11:41:12.163Z,959.40
2017-01-29T11:42:12.188Z,959.40
2017-01-29T11:43:12.116Z,959.44
2017-01-29T11:44:09.497Z,959.43
2017-01-29T11:45:12.752Z,959.43
2017-01-29T11:46:10.081Z,959.45
2017-01-29T11:47:10.779Z,959.46
2017-01-29T11:48:09.873Z,959.44
2017-01-29T11:49:15.052Z,959.43
2017-01-29T11:50:12.218Z,959.41
2017-01-29T11:51:12.753Z,959.40
2017-01-29T11:52:13.443Z,959.39
2017-01-29T11:53:12.490Z,959.38
2017-01-29T11:54:12.546Z,959.36
2017-01-29T11:55:12.546Z,959.40
2017-01-29T11:56:12.560Z,959.35
2017-01-29T11:57:13.544Z,959.38
2017-01-29T11:58:13.110Z,959.39
2017-01-29T11:59:14.351Z,959.40
2017-01-29T12:00:12.895Z,959.34
2017-01-29T12:01:12.079Z,959.35
2017-01-29T12:02:13.891Z,959.35
2017-01-29T12:03:12.655Z,959.39
2017-01-29T12:04:13.891Z,959.32
2017-01-29T12:05:11.985Z,959.33
2017-01-29T12:06:11.981Z,959.37
2017-01-29T12:07:13.783Z,959.35
2017-01-29T12:08:11.894Z,959.35
2017-01-29T12:09:13.319Z,959.31
2017-01-29T12:10:12.823Z,959.32
2017-01-29T12:11:11.912Z,959.31
2017-01-29T12:12:12.060Z,959.31
2017-01-29T12:13:12.287Z,959.26
2017-01-29T12:14:12.208Z,959.23
2017-01-29T12:15:12.217Z,959.25
2017-01-29T12:16:12.747Z,959.22
2017-01-29T12:17:12.331Z,959.24
2017-01-29T12:18:14.018Z,959.23
2017-01-29T12:19:12.125Z,959.20
2017-01-29T12:20:12.812Z,959.17
2017-01-29T12:21:13.821Z,959.19
2017-01-29T12:22:11.721Z,959.14
2017-01-29T12:23:18.914Z,959.14
2017-01-29T12:24:12.033Z,959.10
2017-01-29T12:25:12.696Z,959.08
2017-01-29T12:26:13.630Z,959.10
2017-01-29T12:27:12.617Z,959.05
2017-01-29T12:28:13.483Z,959.09